Flight Track Log - Related Links

Times and Time Zones

All times are in EDT time to prevent confusion due to time zone crossing. See the ASQ5328 flight status page for this flight to view local times or setup timezone preferences in your user account.

Time Position Orientation Groundspeed Altitude Reporting Facility
EDT Latitude Longitude Course Direction KTS MPH feet Rate Location/Type
Mon 10:25:32 AM 30.4678 -84.2881 359° North 200 230 5,000  Level Jacksonville Center
Mon 10:26:32 AM 30.5281 -84.3106 342° North 218 251 6,900 2,400 Climbing Jacksonville Center
Mon 10:27:32 AM 30.6050 -84.3358 344° North 256 295 9,800 2,350 Climbing Jacksonville Center
Mon 10:28:32 AM 30.6839 -84.3708 339° North 273 314 11,600 1,650 Climbing Jacksonville Center
Mon 10:29:00 AM 30.4855 -84.3529 359° North  Level Estimated
Mon 10:29:32 AM 30.7711 -84.4061 341° North 305 351 13,100  Level Jacksonville Center
Mon 10:30:00 AM 30.5743 -84.3549 359° North  Level Estimated
Mon 10:30:32 AM 30.8625 -84.4414 342° North 327 376 14,600  Level Jacksonville Center
Mon 10:31:32 AM 30.9561 -84.4769 342° North 345 397 16,600 1,900 Climbing Jacksonville Center
Mon 10:32:32 AM 31.0494 -84.5147 341° North 350 403 18,400 1,650 Climbing Jacksonville Center
Mon 10:33:32 AM 31.1450 -84.5553 340° North 350 403 19,900 1,500 Climbing Jacksonville Center
Mon 10:34:32 AM 31.2386 -84.5911 342° North 350 403 21,400 1,050 Climbing Jacksonville Center
Mon 10:35:32 AM 31.3383 -84.6317 341° North 361 415 22,000 300 Climbing Jacksonville Center
Mon 10:36:32 AM 31.4400 -84.6653 344° North 368 423 22,000  Level Jacksonville Center
Mon 10:37:32 AM 31.5461 -84.6989 345° North 378 435 22,000  Level Jacksonville Center
Mon 10:38:32 AM 31.6458 -84.7328 344° North 378 435 22,000  Level Jacksonville Center
Mon 10:39:05 AM 31.6925 -84.7492 343° North 387 445 22,000  Level Atlanta Center
Mon 10:40:05 AM 31.7903 -84.7817 344° North 382 440 22,000 -50 Level Atlanta Center
Mon 10:41:05 AM 31.8922 -84.8167 344° North 377 434 21,900 -300 Descending Atlanta Center
Mon 10:42:05 AM 31.9944 -84.8494 345° North 377 434 21,400 -450 Descending Atlanta Center
Mon 10:43:05 AM 32.1006 -84.8872 343° North 383 441 21,000 -200 Descending Atlanta Center
Mon 10:44:05 AM 32.2028 -84.9128 348° North 377 434 21,000  Level Atlanta Center
Mon 10:45:05 AM 32.3153 -84.9236 355° North 377 434 21,000  Level Atlanta Center
Mon 10:46:05 AM 32.4175 -84.9344 355° North 383 441 21,000  Level Atlanta Center
Mon 10:47:05 AM 32.5344 -84.9506 353° North 383 441 21,000  Level Atlanta Center
Mon 10:48:05 AM 32.6303 -84.9589 356° North 383 441 21,000  Level Atlanta Center
Mon 10:49:05 AM 32.7367 -84.9722 354° North 383 441 21,000 -1,350 Level Atlanta Center
Mon 10:50:05 AM 32.8533 -84.9908 352° North 390 449 18,300 -2,250 Descending Atlanta Center
Mon 10:51:05 AM 32.9472 -85.0067 352° North 381 438 16,500 -2,200 Descending Atlanta Center
Mon 10:52:05 AM 33.0494 -85.0153 356° North 369 425 13,900 -2,200 Descending Atlanta Center
Mon 10:53:05 AM 33.1453 -85.0261 355° North 352 405 12,100 -1,350 Descending Atlanta Center
Mon 10:54:05 AM 33.2167 -84.9850 26° Northeast 291 335 11,200 -1,500 Descending Atlanta Center
Mon 10:55:05 AM 33.2756 -84.9108 46° Northeast 291 335 9,100 -1,650 Descending Atlanta Center
Mon 10:56:05 AM 33.3261 -84.8419 49° Northeast 280 322 7,900 -1,750 Descending Atlanta Center
Mon 10:57:05 AM 33.3933 -84.7978 29° Northeast 246 283 5,600 -1,782 Descending Atlanta Center
Mon 10:57:46 AM 33.4500 -84.8167 344° North 277 319 4,900 -821 Descending Atlanta TRACON
Mon 10:58:40 AM 33.5167 -84.8167 360° North 277 319 4,300 -556 Descending Atlanta TRACON
Mon 10:59:34 AM 33.5833 -84.8167 360° North 238 274 3,900 -100 Descending Atlanta TRACON
Mon 11:00:40 AM 33.6167 -84.7667 51° Northeast 205 236 4,100 100 Climbing Atlanta TRACON
Mon 11:01:34 AM 33.6333 -84.7000 73° East 190 219 4,100 -53 Level Atlanta TRACON
Mon 11:02:34 AM 33.6333 -84.6500 90° East 170 196 4,000 -350 Descending Atlanta TRACON
Mon 11:03:34 AM 33.6333 -84.6000 90° East 170 196 3,400 -789 Descending Atlanta TRACON
Mon 11:04:28 AM 33.6333 -84.5333 90° East 171 197 2,500 -850 Descending Atlanta TRACON
Mon 11:05:34 AM 33.6333 -84.4833 90° East 136 157 1,700 -727 Descending Atlanta TRACON
Mon 11:07:00 AM 33.6367 -84.4279 90° East  Level Estimated
Mon 11:14:00 AM 33.6367 -84.4279 292° West  Level Estimated
Mon 11:15:00 AM 33.6367 -84.4279 292° West  Level Estimated

Login

Don't have an account? Register now (free) for customized features, flight alerts, and more!